Time;durP1;ratioP1;P1;durP2;ratioP2;P2;SDS_P1;SDS_P2;PMS_P1;PMS_P2;Temp;Humidity;BMP_temperature;BMP_pressure;BME280_temperature;BME280_humidity;BME280_pressure;Samples;Min_cycle;Max_cycle;Signal;HPM_P1;HPM_P2
2023/04/28 00:00:49;;;;;;;7.43;2.95;;;;;;;;;;5027803;28;20060;-71
2023/04/28 00:03:17;;;;;;;7.53;3.50;;;;;;;;;;5024347;28;20067;-69
2023/04/28 00:05:44;;;;;;;7.18;3.35;;;;;;;;;;5028416;28;20063;-70
2023/04/28 00:08:10;;;;;;;7.47;3.35;;;;;;;;;;5037808;28;20055;-70
2023/04/28 00:10:37;;;;;;;6.53;3.08;;;;;;;;;;5056753;28;20059;-70
2023/04/28 00:13:03;;;;;;;6.53;3.10;;;;;;;;;;5049979;28;20063;-71
2023/04/28 00:15:31;;;;;;;7.70;2.97;;;;;;;;;;5044995;28;20045;-69
2023/04/28 00:17:58;;;;;;;8.98;3.42;;;;;;;;;;5035130;28;20117;-71
2023/04/28 00:20:24;;;;;;;7.93;3.35;;;;;;;;;;5027899;28;20052;-69
2023/04/28 00:22:51;;;;;;;7.95;3.25;;;;;;;;;;5032099;28;20057;-69
2023/04/28 00:25:17;;;;;;;8.07;3.42;;;;;;;;;;5025361;28;20049;-69
2023/04/28 00:27:44;;;;;;;6.38;2.83;;;;;;;;;;5021605;28;20064;-71
2023/04/28 00:30:10;;;;;;;7.28;3.00;;;;;;;;;;5018327;28;20217;-70
2023/04/28 00:32:39;;;;;;;7.20;3.05;;;;;;;;;;5031042;28;20443;-70
2023/04/28 00:35:09;;;;;;;7.88;3.42;;;;;;;;;;5029047;28;20172;-69
2023/04/28 00:37:36;;;;;;;8.23;2.78;;;;;;;;;;5029983;28;20132;-70
2023/04/28 00:40:03;;;;;;;6.95;2.92;;;;;;;;;;5031075;28;20057;-69
2023/04/28 00:42:30;;;;;;;7.47;3.13;;;;;;;;;;5031185;28;20081;-70
2023/04/28 00:44:56;;;;;;;7.03;2.92;;;;;;;;;;5032005;28;20049;-68
2023/04/28 00:47:23;;;;;;;8.38;3.50;;;;;;;;;;5020989;28;20061;-69
2023/04/28 00:49:51;;;;;;;6.28;3.20;;;;;;;;;;5029303;28;20130;-70
2023/04/28 00:52:18;;;;;;;7.55;3.20;;;;;;;;;;5015647;28;20222;-67
2023/04/28 00:54:46;;;;;;;7.00;3.08;;;;;;;;;;5018945;28;20096;-68
2023/04/28 00:57:13;;;;;;;6.80;3.05;;;;;;;;;;5012064;28;20131;-67
2023/04/28 00:59:39;;;;;;;6.72;3.10;;;;;;;;;;5030945;28;20156;-68
2023/04/28 01:02:07;;;;;;;9.18;3.22;;;;;;;;;;5021326;28;20072;-71
2023/04/28 01:04:33;;;;;;;6.15;3.05;;;;;;;;;;5018419;28;20060;-69
2023/04/28 01:07:02;;;;;;;7.40;3.15;;;;;;;;;;5001442;28;20065;-68
2023/04/28 01:09:29;;;;;;;7.50;2.97;;;;;;;;;;5001181;28;20092;-70
2023/04/28 01:11:57;;;;;;;6.38;2.70;;;;;;;;;;5013592;28;20136;-69
2023/04/28 01:14:23;;;;;;;5.68;3.00;;;;;;;;;;5016903;28;20111;-70
2023/04/28 01:16:50;;;;;;;6.50;2.95;;;;;;;;;;5014107;28;20092;-70
2023/04/28 01:19:19;;;;;;;7.60;3.38;;;;;;;;;;4995545;28;20100;-68
2023/04/28 01:21:45;;;;;;;7.32;2.97;;;;;;;;;;5017525;28;20061;-67
2023/04/28 01:24:13;;;;;;;8.23;3.10;;;;;;;;;;5032332;28;20075;-69
2023/04/28 01:26:40;;;;;;;6.82;2.75;;;;;;;;;;5037096;28;20057;-68
2023/04/28 01:29:07;;;;;;;7.07;2.97;;;;;;;;;;5021391;28;20146;-69
2023/04/28 01:31:34;;;;;;;7.22;3.08;;;;;;;;;;5031571;28;20061;-68
2023/04/28 01:34:00;;;;;;;8.20;2.83;;;;;;;;;;5035947;28;20065;-68
2023/04/28 01:36:27;;;;;;;5.70;2.83;;;;;;;;;;5036928;28;20072;-67
2023/04/28 01:38:53;;;;;;;6.07;3.25;;;;;;;;;;5032063;28;20067;-70
2023/04/28 01:41:22;;;;;;;7.43;3.05;;;;;;;;;;5035780;28;20057;-68
2023/04/28 01:43:48;;;;;;;7.25;2.97;;;;;;;;;;5033578;28;20045;-69
2023/04/28 01:46:15;;;;;;;8.48;3.13;;;;;;;;;;5037259;28;20191;-71
2023/04/28 01:48:41;;;;;;;6.10;2.70;;;;;;;;;;5033592;28;20055;-69
2023/04/28 01:51:08;;;;;;;7.03;2.97;;;;;;;;;;5034559;28;20055;-67
2023/04/28 01:53:34;;;;;;;5.68;2.60;;;;;;;;;;5032855;28;20053;-69
2023/04/28 01:56:01;;;;;;;6.38;2.60;;;;;;;;;;5037285;28;20064;-70
2023/04/28 01:58:29;;;;;;;8.98;2.92;;;;;;;;;;5034222;28;20079;-68
2023/04/28 02:00:55;;;;;;;6.53;3.00;;;;;;;;;;5033839;28;20053;-69
2023/04/28 02:03:22;;;;;;;7.22;2.90;;;;;;;;;;5033263;28;20061;-70
2023/04/28 02:05:49;;;;;;;5.93;3.00;;;;;;;;;;5027996;28;20052;-69
2023/04/28 02:08:15;;;;;;;8.35;2.83;;;;;;;;;;5040709;28;20048;-70
2023/04/28 02:10:42;;;;;;;6.07;2.67;;;;;;;;;;5030112;28;20052;-70
2023/04/28 02:13:08;;;;;;;6.43;3.08;;;;;;;;;;5036321;28;20053;-69
2023/04/28 02:15:39;;;;;;;9.30;3.08;;;;;;;;;;5037882;28;20053;-70
2023/04/28 02:18:05;;;;;;;7.70;2.70;;;;;;;;;;5036695;28;20063;-67
2023/04/28 02:20:32;;;;;;;6.72;2.85;;;;;;;;;;5032392;28;20140;-67
2023/04/28 02:22:59;;;;;;;9.25;3.10;;;;;;;;;;5031449;28;20060;-68
2023/04/28 02:25:25;;;;;;;6.15;2.85;;;;;;;;;;4997816;28;20049;-68
2023/04/28 02:27:51;;;;;;;5.82;2.80;;;;;;;;;;5018621;28;20046;-68
2023/04/28 02:30:18;;;;;;;8.45;2.83;;;;;;;;;;5014517;28;20073;-70
2023/04/28 02:32:46;;;;;;;8.48;2.60;;;;;;;;;;5010886;28;20080;-71
2023/04/28 02:35:12;;;;;;;4.93;2.43;;;;;;;;;;4982970;28;20115;-69
2023/04/28 02:37:39;;;;;;;6.93;2.80;;;;;;;;;;5018718;28;20084;-69
2023/04/28 02:40:06;;;;;;;6.50;2.75;;;;;;;;;;5013054;28;20145;-70
2023/04/28 02:42:34;;;;;;;9.13;2.88;;;;;;;;;;5015081;28;20073;-68
2023/04/28 02:45:00;;;;;;;8.20;3.23;;;;;;;;;;5018820;28;20064;-71
2023/04/28 02:47:27;;;;;;;8.15;2.78;;;;;;;;;;5032374;28;20342;-69
2023/04/28 02:49:55;;;;;;;10.93;3.22;;;;;;;;;;5035018;28;20155;-68
2023/04/28 02:52:21;;;;;;;8.80;3.00;;;;;;;;;;5031880;28;20067;-69
2023/04/28 02:54:53;;;;;;;6.25;2.67;;;;;;;;;;5007611;28;20052;-70
2023/04/28 02:57:20;;;;;;;6.70;2.70;;;;;;;;;;5031286;28;20167;-69
2023/04/28 02:59:46;;;;;;;7.30;2.80;;;;;;;;;;5038035;28;20053;-68
2023/04/28 03:02:15;;;;;;;7.82;3.10;;;;;;;;;;5032314;28;20057;-69
2023/04/28 03:04:41;;;;;;;;;;;;;;;;;;5005726;28;20170;-70
2023/04/28 03:07:09;;;;;;;7.45;2.30;;;;;;;;;;5012586;28;19932;-68
2023/04/28 03:09:37;;;;;;;7.75;2.95;;;;;;;;;;5014909;28;20095;-70
2023/04/28 03:12:03;;;;;;;6.15;2.50;;;;;;;;;;5028354;28;20123;-68
2023/04/28 03:14:30;;;;;;;6.60;2.85;;;;;;;;;;5006194;28;20079;-70
2023/04/28 03:16:57;;;;;;;5.38;2.70;;;;;;;;;;5020211;28;20261;-70
2023/04/28 03:19:23;;;;;;;7.07;3.13;;;;;;;;;;5014910;28;20169;-67
2023/04/28 03:21:50;;;;;;;6.93;2.78;;;;;;;;;;5013344;28;20061;-69
2023/04/28 03:24:17;;;;;;;7.10;3.05;;;;;;;;;;4998687;28;20124;-70
2023/04/28 03:26:44;;;;;;;5.10;2.83;;;;;;;;;;5016683;28;20057;-70
2023/04/28 03:29:11;;;;;;;6.68;3.03;;;;;;;;;;5012806;28;20057;-70
2023/04/28 03:31:38;;;;;;;5.88;2.65;;;;;;;;;;5014874;28;20053;-70
2023/04/28 03:34:05;;;;;;;8.27;3.00;;;;;;;;;;5004279;28;20150;-69
2023/04/28 03:36:32;;;;;;;11.40;2.70;;;;;;;;;;5021646;28;20049;-70
2023/04/28 03:39:01;;;;;;;5.38;2.35;;;;;;;;;;5035658;28;20052;-69
2023/04/28 03:41:29;;;;;;;9.55;3.30;;;;;;;;;;5056386;28;20381;-69
2023/04/28 03:43:56;;;;;;;7.45;2.55;;;;;;;;;;5034496;28;20052;-68
2023/04/28 03:46:22;;;;;;;6.65;2.75;;;;;;;;;;5035885;28;20053;-70
2023/04/28 03:48:49;;;;;;;6.82;2.92;;;;;;;;;;5026806;28;20121;-73
2023/04/28 03:51:15;;;;;;;6.60;2.97;;;;;;;;;;5056226;28;20174;-71
2023/04/28 03:53:42;;;;;;;7.10;3.17;;;;;;;;;;5032902;28;20060;-70
2023/04/28 03:56:09;;;;;;;8.00;3.20;;;;;;;;;;5027883;28;20135;-70
2023/04/28 03:58:40;;;;;;;9.48;3.00;;;;;;;;;;5046980;28;20108;-72
2023/04/28 04:01:06;;;;;;;6.75;3.05;;;;;;;;;;5055958;28;20056;-73
2023/04/28 04:03:33;;;;;;;7.97;3.28;;;;;;;;;;5051118;28;20373;-68
2023/04/28 04:06:00;;;;;;;6.75;3.10;;;;;;;;;;5022749;28;20099;-67
2023/04/28 04:08:29;;;;;;;10.50;3.00;;;;;;;;;;5034919;28;20048;-66
2023/04/28 04:10:56;;;;;;;9.90;3.40;;;;;;;;;;5048151;28;20206;-68
2023/04/28 04:13:22;;;;;;;7.20;3.15;;;;;;;;;;5055821;28;20086;-69
2023/04/28 04:15:51;;;;;;;8.38;3.42;;;;;;;;;;4994985;28;20064;-68
2023/04/28 04:18:17;;;;;;;;;;;;;;;;;;5056767;28;20053;-68
2023/04/28 04:20:44;;;;;;;7.03;3.35;;;;;;;;;;5043503;28;19929;-69
2023/04/28 04:23:10;;;;;;;6.30;3.00;;;;;;;;;;5056873;28;20207;-70
2023/04/28 04:25:37;;;;;;;7.53;3.22;;;;;;;;;;5020891;28;20091;-67
2023/04/28 04:28:03;;;;;;;11.38;3.28;;;;;;;;;;5064415;28;20052;-68
2023/04/28 04:30:34;;;;;;;7.88;3.60;;;;;;;;;;5053925;28;20152;-70
2023/04/28 04:33:04;;;;;;;6.43;3.28;;;;;;;;;;5054439;28;20060;-70
2023/04/28 04:35:31;;;;;;;6.90;3.28;;;;;;;;;;5034890;28;20118;-69
2023/04/28 04:37:58;;;;;;;8.10;3.67;;;;;;;;;;5058187;28;20060;-69
2023/04/28 04:40:28;;;;;;;8.43;3.65;;;;;;;;;;5034416;28;20064;-68
2023/04/28 04:42:58;;;;;;;8.48;3.70;;;;;;;;;;5037659;28;20122;-68
2023/04/28 04:45:25;;;;;;;8.63;3.72;;;;;;;;;;5002645;28;20122;-68
2023/04/28 04:47:52;;;;;;;9.93;3.50;;;;;;;;;;5030887;28;20447;-68
2023/04/28 04:50:20;;;;;;;8.80;3.85;;;;;;;;;;5037002;28;20103;-69
2023/04/28 04:52:46;;;;;;;10.07;3.80;;;;;;;;;;5028902;28;20077;-68
2023/04/28 04:55:13;;;;;;;8.07;3.50;;;;;;;;;;5011423;28;20053;-68
2023/04/28 04:57:39;;;;;;;8.25;3.22;;;;;;;;;;5034042;28;20071;-70
2023/04/28 05:00:14;;;;;;;9.15;3.78;;;;;;;;;;5038570;28;20053;-69
2023/04/28 05:02:43;;;;;;;8.25;3.90;;;;;;;;;;5030728;28;20114;-68
2023/04/28 05:05:13;;;;;;;9.70;4.07;;;;;;;;;;5016982;28;20140;-68
2023/04/28 05:07:43;;;;;;;10.80;4.10;;;;;;;;;;5043216;28;20045;-71
2023/04/28 05:10:10;;;;;;;9.90;3.45;;;;;;;;;;5016187;28;20054;-71
2023/04/28 05:12:37;;;;;;;9.45;3.83;;;;;;;;;;5007417;28;20064;-68
2023/04/28 05:15:13;;;;;;;8.88;3.85;;;;;;;;;;4981796;28;20053;-68
2023/04/28 05:17:45;;;;;;;8.63;3.80;;;;;;;;;;5033328;28;20057;-70
2023/04/28 05:20:14;;;;;;;8.60;4.25;;;;;;;;;;5037453;28;20109;-69
2023/04/28 05:22:42;;;;;;;10.60;3.92;;;;;;;;;;5029857;28;20057;-71
2023/04/28 05:25:11;;;;;;;9.13;3.90;;;;;;;;;;5011793;28;20046;-71
2023/04/28 05:27:39;;;;;;;9.98;4.15;;;;;;;;;;5014698;28;20548;-69
2023/04/28 05:30:09;;;;;;;8.85;3.78;;;;;;;;;;5016537;28;20049;-70
2023/04/28 05:32:36;;;;;;;13.43;4.07;;;;;;;;;;5014335;28;20072;-70
2023/04/28 05:35:03;;;;;;;11.43;4.35;;;;;;;;;;5002696;28;20061;-69
2023/04/28 05:37:29;;;;;;;8.40;4.00;;;;;;;;;;5035085;28;20459;-70
2023/04/28 05:40:01;;;;;;;9.68;4.18;;;;;;;;;;5046741;28;20056;-72
2023/04/28 05:42:28;;;;;;;10.95;4.47;;;;;;;;;;5055475;28;20071;-68
2023/04/28 05:44:55;;;;;;;8.70;4.05;;;;;;;;;;5019008;28;20093;-68
2023/04/28 05:47:21;;;;;;;9.98;4.20;;;;;;;;;;5057234;28;20123;-71
2023/04/28 05:49:48;;;;;;;8.98;4.10;;;;;;;;;;5077257;28;20203;-71
2023/04/28 05:52:15;;;;;;;9.10;4.32;;;;;;;;;;5078196;28;20067;-71
2023/04/28 05:54:44;;;;;;;11.23;4.20;;;;;;;;;;5031535;28;20542;-69
2023/04/28 05:57:14;;;;;;;8.32;4.15;;;;;;;;;;5079547;28;20089;-68
2023/04/28 06:00:00;;;;;;;8.53;4.43;;;;;;;;;;5058084;28;20060;-70
2023/04/28 06:02:28;;;;;;;12.13;4.30;;;;;;;;;;5077946;28;20413;-68
2023/04/28 06:04:58;;;;;;;10.55;4.55;;;;;;;;;;5021314;28;20052;-68
2023/04/28 06:07:26;;;;;;;9.48;4.35;;;;;;;;;;5040994;28;20147;-68
2023/04/28 06:09:53;;;;;;;10.13;4.25;;;;;;;;;;5058340;28;20093;-68
2023/04/28 06:12:34;;;;;;;;;;;;;;;;;;;;;
2023/04/28 06:15:01;;;;;;;9.15;4.47;;;;;;;;;;5051504;28;20064;-67
2023/04/28 06:17:30;;;;;;;9.30;4.60;;;;;;;;;;5077740;28;20132;-69
2023/04/28 06:19:57;;;;;;;9.73;4.45;;;;;;;;;;5059590;28;20051;-68
2023/04/28 06:22:24;;;;;;;9.27;4.35;;;;;;;;;;5078130;28;20151;-70
2023/04/28 06:24:52;;;;;;;9.15;4.45;;;;;;;;;;5046943;28;20132;-67
2023/04/28 06:27:20;;;;;;;8.93;4.18;;;;;;;;;;5079121;28;20086;-67
2023/04/28 06:29:47;;;;;;;9.13;4.40;;;;;;;;;;5055414;28;20059;-68
2023/04/28 06:32:13;;;;;;;8.68;4.35;;;;;;;;;;5078901;28;20059;-68
2023/04/28 06:34:40;;;;;;;8.85;4.32;;;;;;;;;;5044515;28;20056;-70
2023/04/28 06:37:08;;;;;;;9.90;4.45;;;;;;;;;;5057980;28;20067;-70
2023/04/28 06:39:34;;;;;;;9.65;4.22;;;;;;;;;;5073592;28;20522;-68
2023/04/28 06:42:03;;;;;;;10.10;4.30;;;;;;;;;;5060451;28;20051;-70
2023/04/28 06:44:31;;;;;;;;;;;;;;;;;;5057252;28;20101;-69
2023/04/28 06:46:59;;;;;;;17.38;4.70;;;;;;;;;;5070454;28;19985;-69
2023/04/28 06:49:26;;;;;;;10.60;5.32;;;;;;;;;;5061937;28;20056;-66
2023/04/28 06:52:01;;;;;;;11.02;5.22;;;;;;;;;;5055864;28;20048;-68
2023/04/28 06:54:30;;;;;;;11.73;5.72;;;;;;;;;;5075840;28;20125;-70
2023/04/28 06:57:00;;;;;;;10.90;5.00;;;;;;;;;;5039756;28;20060;-70
2023/04/28 06:59:27;;;;;;;11.75;5.28;;;;;;;;;;5059286;28;20160;-71
2023/04/28 07:01:55;;;;;;;14.52;5.70;;;;;;;;;;5057143;28;20052;-69
2023/04/28 07:04:23;;;;;;;14.85;5.72;;;;;;;;;;5061563;28;20043;-71
2023/04/28 07:06:51;;;;;;;11.98;5.40;;;;;;;;;;5011898;28;20135;-68
2023/04/28 07:09:18;;;;;;;13.43;5.25;;;;;;;;;;5078833;28;20533;-68
2023/04/28 07:11:46;;;;;;;12.60;5.47;;;;;;;;;;5053615;28;20044;-67
2023/04/28 07:14:13;;;;;;;12.05;5.85;;;;;;;;;;5059369;28;20110;-68
2023/04/28 07:16:39;;;;;;;12.45;6.20;;;;;;;;;;5039739;28;20113;-70
2023/04/28 07:19:06;;;;;;;14.05;5.63;;;;;;;;;;5059060;28;20091;-69
2023/04/28 07:21:35;;;;;;;16.05;6.47;;;;;;;;;;5074784;28;20048;-69
2023/04/28 07:24:06;;;;;;;14.32;5.70;;;;;;;;;;5078475;28;20124;-68
2023/04/28 07:26:36;;;;;;;13.30;6.03;;;;;;;;;;5050297;28;20040;-69
2023/04/28 07:29:02;;;;;;;11.82;5.55;;;;;;;;;;5075542;28;20085;-69
2023/04/28 07:31:29;;;;;;;14.93;5.72;;;;;;;;;;5072880;28;20060;-69
2023/04/28 07:33:56;;;;;;;14.13;6.05;;;;;;;;;;5075907;28;20062;-68
2023/04/28 07:36:23;;;;;;;13.32;5.35;;;;;;;;;;5075280;28;20063;-67
2023/04/28 07:38:51;;;;;;;13.00;6.20;;;;;;;;;;5046601;28;20162;-72
2023/04/28 07:41:17;;;;;;;11.20;5.90;;;;;;;;;;5078444;28;20076;-69
2023/04/28 07:43:46;;;;;;;13.43;6.13;;;;;;;;;;5057726;28;20052;-70
2023/04/28 07:46:13;;;;;;;12.75;6.00;;;;;;;;;;5078508;28;20063;-69
2023/04/28 07:48:43;;;;;;;13.15;5.70;;;;;;;;;;5046651;28;20056;-69
2023/04/28 07:51:10;;;;;;;11.43;5.90;;;;;;;;;;5059675;28;20048;-71
2023/04/28 07:53:37;;;;;;;12.10;6.45;;;;;;;;;;5056178;28;20048;-67
2023/04/28 07:56:05;;;;;;;11.07;5.75;;;;;;;;;;5037811;28;20060;-69
2023/04/28 07:58:37;;;;;;;11.68;6.20;;;;;;;;;;5071078;28;20068;-71
2023/04/28 08:01:04;;;;;;;11.70;6.15;;;;;;;;;;5060307;28;20052;-67
2023/04/28 08:03:30;;;;;;;13.43;6.30;;;;;;;;;;5077735;28;20063;-67
2023/04/28 08:05:58;;;;;;;16.45;6.97;;;;;;;;;;5060172;28;20080;-69
2023/04/28 08:08:24;;;;;;;14.40;6.65;;;;;;;;;;5059594;28;20138;-67
2023/04/28 08:10:51;;;;;;;14.75;6.75;;;;;;;;;;5055154;28;20060;-70
2023/04/28 08:13:19;;;;;;;13.32;6.35;;;;;;;;;;5060928;28;20052;-71
2023/04/28 08:15:47;;;;;;;14.18;6.47;;;;;;;;;;5058959;28;20052;-69
2023/04/28 08:18:14;;;;;;;12.50;6.18;;;;;;;;;;5078853;28;20120;-70
2023/04/28 08:20:40;;;;;;;15.63;7.03;;;;;;;;;;5056697;28;20422;-69
2023/04/28 08:23:07;;;;;;;14.82;6.65;;;;;;;;;;5079849;28;20147;-70
2023/04/28 08:25:36;;;;;;;16.80;6.55;;;;;;;;;;5045361;28;20056;-72
2023/04/28 08:28:07;;;;;;;13.68;7.25;;;;;;;;;;5080987;28;20052;-71
2023/04/28 08:30:39;;;;;;;13.82;6.97;;;;;;;;;;5056831;28;20192;-69
2023/04/28 08:33:05;;;;;;;16.80;6.38;;;;;;;;;;5063632;28;20060;-69
2023/04/28 08:35:32;;;;;;;15.38;7.30;;;;;;;;;;5050107;28;20085;-70
2023/04/28 08:37:58;;;;;;;14.45;6.57;;;;;;;;;;5063453;28;20064;-67
2023/04/28 08:40:25;;;;;;;14.98;7.13;;;;;;;;;;5058722;28;20090;-70
2023/04/28 08:42:52;;;;;;;12.32;6.53;;;;;;;;;;5055792;28;20147;-67
2023/04/28 08:45:19;;;;;;;23.60;7.35;;;;;;;;;;5059814;28;20057;-71
2023/04/28 08:47:49;;;;;;;13.65;6.47;;;;;;;;;;5060375;28;20066;-71
2023/04/28 08:50:15;;;;;;;16.63;6.60;;;;;;;;;;5076028;28;20151;-68
2023/04/28 08:52:42;;;;;;;14.93;6.45;;;;;;;;;;5056349;28;20123;-68
2023/04/28 08:55:10;;;;;;;11.50;6.40;;;;;;;;;;5034962;28;20050;-68
2023/04/28 08:57:38;;;;;;;13.18;6.50;;;;;;;;;;5079628;28;20066;-70
2023/04/28 09:00:05;;;;;;;12.90;6.18;;;;;;;;;;5077469;28;20059;-69
2023/04/28 09:02:40;;;;;;;15.77;6.40;;;;;;;;;;5056093;28;20052;-71
2023/04/28 09:05:09;;;;;;;12.63;6.97;;;;;;;;;;5073598;28;20060;-70
2023/04/28 09:07:35;;;;;;;14.55;6.80;;;;;;;;;;5079742;28;20079;-70
2023/04/28 09:10:15;;;;;;;13.50;7.30;;;;;;;;;;5062697;28;20250;-71
2023/04/28 09:12:42;;;;;;;10.70;5.93;;;;;;;;;;5069446;28;20055;-69
2023/04/28 09:15:09;;;;;;;17.38;7.07;;;;;;;;;;5059219;28;20056;-71
2023/04/28 09:17:49;;;;;;;12.68;6.55;;;;;;;;;;5077008;28;20055;-67
2023/04/28 09:20:26;;;;;;;13.80;6.82;;;;;;;;;;5061696;28;20059;-69
2023/04/28 09:22:53;;;;;;;12.57;6.47;;;;;;;;;;5049917;28;20055;-69
2023/04/28 09:25:21;;;;;;;12.23;6.27;;;;;;;;;;5045825;28;20056;-68
2023/04/28 09:27:48;;;;;;;13.15;6.25;;;;;;;;;;5057754;28;20063;-68
2023/04/28 09:30:35;;;;;;;15.25;6.63;;;;;;;;;;5062823;28;20055;-71
2023/04/28 09:33:04;;;;;;;14.05;6.78;;;;;;;;;;5079129;28;20051;-69
2023/04/28 09:35:40;;;;;;;15.23;6.65;;;;;;;;;;5042562;28;20139;-68
2023/04/28 09:38:07;;;;;;;11.80;6.45;;;;;;;;;;5044750;28;20149;-72
2023/04/28 09:40:33;;;;;;;13.40;6.82;;;;;;;;;;5056337;28;20152;-69
2023/04/28 09:43:03;;;;;;;12.32;6.43;;;;;;;;;;5051717;28;20137;-68
2023/04/28 09:45:41;;;;;;;14.05;6.57;;;;;;;;;;5040542;28;20136;-69
2023/04/28 09:48:09;;;;;;;11.50;5.90;;;;;;;;;;5059289;28;20059;-69
2023/04/28 09:50:41;;;;;;;14.43;6.38;;;;;;;;;;5052994;28;20059;-73
2023/04/28 09:53:11;;;;;;;12.65;6.68;;;;;;;;;;5058431;28;20056;-68
2023/04/28 09:55:39;;;;;;;16.60;6.95;;;;;;;;;;5050080;28;20156;-71
2023/04/28 09:58:10;;;;;;;13.05;6.47;;;;;;;;;;5059988;28;20125;-72
2023/04/28 10:00:41;;;;;;;11.05;6.15;;;;;;;;;;5073613;28;20060;-70
2023/04/28 10:03:09;;;;;;;12.38;6.15;;;;;;;;;;5060918;28;20513;-70
2023/04/28 10:05:37;;;;;;;18.23;6.03;;;;;;;;;;5022177;28;20045;-70
2023/04/28 10:08:05;;;;;;;12.80;6.53;;;;;;;;;;5076416;28;20091;-72
2023/04/28 10:10:32;;;;;;;13.40;6.50;;;;;;;;;;5058204;28;20078;-71
2023/04/28 10:12:59;;;;;;;14.07;6.85;;;;;;;;;;5073671;28;20055;-68
2023/04/28 10:15:28;;;;;;;12.20;6.65;;;;;;;;;;5058281;28;20060;-72
2023/04/28 10:17:57;;;;;;;11.65;6.13;;;;;;;;;;5056356;28;20056;-69
2023/04/28 10:20:25;;;;;;;12.18;6.22;;;;;;;;;;5060765;28;20066;-70
2023/04/28 10:22:58;;;;;;;10.43;5.88;;;;;;;;;;5051606;28;20060;-71
2023/04/28 10:25:27;;;;;;;17.17;6.30;;;;;;;;;;5044152;28;20056;-70
2023/04/28 10:27:56;;;;;;;13.40;6.60;;;;;;;;;;5079118;28;20056;-72
2023/04/28 10:30:24;;;;;;;11.00;5.78;;;;;;;;;;5057862;28;20141;-68
2023/04/28 10:33:22;;;;;;;13.45;6.68;;;;;;;;;;5069651;28;20361;-69
2023/04/28 10:35:48;;;;;;;11.63;5.55;;;;;;;;;;5070600;28;20544;-70
2023/04/28 10:38:15;;;;;;;11.52;6.40;;;;;;;;;;5061700;28;20083;-71
2023/04/28 10:40:43;;;;;;;12.93;6.20;;;;;;;;;;5068003;28;20080;-68
2023/04/28 10:43:10;;;;;;;12.02;5.93;;;;;;;;;;5060794;28;20056;-71
2023/04/28 10:45:55;;;;;;;12.73;5.75;;;;;;;;;;5013037;28;20053;-71
2023/04/28 10:48:22;;;;;;;12.45;6.03;;;;;;;;;;5060344;28;20060;-70
2023/04/28 10:51:12;;;;;;;12.18;6.22;;;;;;;;;;5050525;28;20142;-71
2023/04/28 10:53:58;;;;;;;11.68;6.07;;;;;;;;;;5074930;28;20060;-70
2023/04/28 10:56:26;;;;;;;9.75;5.25;;;;;;;;;;5036327;28;20081;-68
2023/04/28 10:58:53;;;;;;;9.80;5.28;;;;;;;;;;5053561;28;20052;-68
2023/04/28 11:01:28;;;;;;;9.70;5.20;;;;;;;;;;5057120;28;20060;-68
2023/04/28 11:03:58;;;;;;;10.90;5.45;;;;;;;;;;5057607;28;20052;-69
2023/04/28 11:06:28;;;;;;;10.52;5.22;;;;;;;;;;5054309;28;20055;-71
2023/04/28 11:08:56;;;;;;;10.77;5.65;;;;;;;;;;5055080;28;20109;-71
2023/04/28 11:11:24;;;;;;;8.82;5.03;;;;;;;;;;5073879;28;20135;-68
2023/04/28 11:13:53;;;;;;;9.73;5.10;;;;;;;;;;5060696;28;20075;-70
2023/04/28 11:16:20;;;;;;;10.07;5.28;;;;;;;;;;5026278;28;20195;-71
2023/04/28 11:18:58;;;;;;;8.00;4.35;;;;;;;;;;5050492;28;20186;-68
2023/04/28 11:21:28;;;;;;;8.63;4.55;;;;;;;;;;5074413;28;20138;-71
2023/04/28 11:23:55;;;;;;;8.65;4.80;;;;;;;;;;5059122;28;20056;-71
2023/04/28 11:26:23;;;;;;;9.00;4.75;;;;;;;;;;5072586;28;20132;-70
2023/04/28 11:28:50;;;;;;;10.25;5.05;;;;;;;;;;5070587;28;20060;-70
2023/04/28 11:31:22;;;;;;;9.25;4.90;;;;;;;;;;5053707;28;20113;-70
2023/04/28 11:33:54;;;;;;;10.13;4.43;;;;;;;;;;5077057;28;20177;-66
2023/04/28 11:36:25;;;;;;;9.30;4.70;;;;;;;;;;5044062;28;20079;-68
2023/04/28 11:38:55;;;;;;;9.63;5.03;;;;;;;;;;5052287;28;21607;-71
2023/04/28 11:41:21;;;;;;;9.68;5.13;;;;;;;;;;5073085;28;20062;-67
2023/04/28 11:43:48;;;;;;;8.45;4.40;;;;;;;;;;5059936;28;20071;-70
2023/04/28 11:46:23;;;;;;;10.07;5.00;;;;;;;;;;5036861;28;20151;-69
2023/04/28 11:48:50;;;;;;;8.13;4.65;;;;;;;;;;5039963;28;20206;-68
2023/04/28 11:51:35;;;;;;;8.57;4.40;;;;;;;;;;5077635;28;20071;-66
2023/04/28 11:54:02;;;;;;;9.35;4.63;;;;;;;;;;5059655;28;20493;-69
2023/04/28 11:56:29;;;;;;;9.25;4.95;;;;;;;;;;5021214;28;20059;-71
2023/04/28 11:59:03;;;;;;;10.82;5.22;;;;;;;;;;5066182;28;21793;-68
2023/04/28 12:01:31;;;;;;;8.07;4.57;;;;;;;;;;5059580;28;20051;-68
2023/04/28 12:03:57;;;;;;;10.02;5.20;;;;;;;;;;5054987;28;20109;-70
2023/04/28 12:06:24;;;;;;;9.60;5.20;;;;;;;;;;5027830;28;20119;-70
2023/04/28 12:08:51;;;;;;;10.38;5.03;;;;;;;;;;5065874;28;20561;-67
2023/04/28 12:11:20;;;;;;;9.32;5.07;;;;;;;;;;5060807;28;20117;-67
2023/04/28 12:14:04;;;;;;;9.35;4.97;;;;;;;;;;5053469;28;20097;-66
2023/04/28 12:16:42;;;;;;;9.45;4.95;;;;;;;;;;5053503;28;20109;-68
2023/04/28 12:19:09;;;;;;;11.10;5.10;;;;;;;;;;5072856;28;20087;-72
2023/04/28 12:21:36;;;;;;;10.13;4.83;;;;;;;;;;5078490;28;20195;-66
2023/04/28 12:24:14;;;;;;;9.05;4.43;;;;;;;;;;5055439;28;20075;-66
2023/04/28 12:26:41;;;;;;;8.45;4.10;;;;;;;;;;5066297;28;20121;-72
2023/04/28 12:29:07;;;;;;;8.98;4.50;;;;;;;;;;5072329;28;20126;-70
2023/04/28 12:31:50;;;;;;;9.20;4.72;;;;;;;;;;5080557;28;20131;-68
2023/04/28 12:34:19;;;;;;;8.85;4.72;;;;;;;;;;5076847;28;20043;-69
2023/04/28 12:36:47;;;;;;;9.23;4.55;;;;;;;;;;5030671;28;20056;-71
2023/04/28 12:39:18;;;;;;;9.13;4.70;;;;;;;;;;5072306;28;20064;-71
2023/04/28 12:41:45;;;;;;;8.07;4.40;;;;;;;;;;5077526;28;20056;-70
2023/04/28 12:44:11;;;;;;;9.00;5.05;;;;;;;;;;5071516;28;20052;-66
2023/04/28 12:46:38;;;;;;;9.43;4.60;;;;;;;;;;5041551;28;20056;-70
2023/04/28 12:49:15;;;;;;;9.45;4.88;;;;;;;;;;5056605;28;20048;-69
2023/04/28 12:51:46;;;;;;;8.27;4.25;;;;;;;;;;5062123;28;20105;-71
2023/04/28 12:54:14;;;;;;;8.82;4.45;;;;;;;;;;5081233;28;20044;-70
2023/04/28 12:56:41;;;;;;;8.52;4.35;;;;;;;;;;5035737;28;20227;-68
2023/04/28 12:59:08;;;;;;;9.80;4.75;;;;;;;;;;5060146;28;20064;-67
2023/04/28 13:01:36;;;;;;;8.57;4.43;;;;;;;;;;5078413;28;20075;-74
2023/04/28 13:04:05;;;;;;;11.88;4.22;;;;;;;;;;5061203;28;20048;-68
2023/04/28 13:06:34;;;;;;;8.50;4.20;;;;;;;;;;5041865;28;20076;-66
2023/04/28 13:09:01;;;;;;;8.60;4.50;;;;;;;;;;5060217;28;20060;-69
2023/04/28 13:11:28;;;;;;;8.40;4.40;;;;;;;;;;5056745;28;20120;-68
2023/04/28 13:13:56;;;;;;;8.00;4.22;;;;;;;;;;5060875;28;20130;-69
2023/04/28 13:16:27;;;;;;;8.65;4.22;;;;;;;;;;5041840;28;20133;-72
2023/04/28 13:18:54;;;;;;;7.82;3.75;;;;;;;;;;5055573;28;20056;-69
2023/04/28 13:21:21;;;;;;;8.43;4.00;;;;;;;;;;5059005;28;20052;-69
2023/04/28 13:23:50;;;;;;;7.70;3.47;;;;;;;;;;5080413;28;20055;-70
2023/04/28 13:26:18;;;;;;;7.88;3.78;;;;;;;;;;5054956;28;20129;-69
2023/04/28 13:28:45;;;;;;;8.02;4.05;;;;;;;;;;5060481;28;20060;-67
2023/04/28 13:31:11;;;;;;;9.45;4.40;;;;;;;;;;5076370;28;20056;-68
2023/04/28 13:33:41;;;;;;;8.85;3.67;;;;;;;;;;5060651;28;20054;-69
2023/04/28 13:36:08;;;;;;;9.77;3.83;;;;;;;;;;5072743;28;20048;-68
2023/04/28 13:38:37;;;;;;;7.22;3.33;;;;;;;;;;5059708;28;20533;-70
2023/04/28 13:41:05;;;;;;;6.57;3.53;;;;;;;;;;5057242;28;21971;-71
2023/04/28 13:43:32;;;;;;;7.97;4.13;;;;;;;;;;5060928;28;20108;-68
2023/04/28 13:45:58;;;;;;;7.93;4.03;;;;;;;;;;5077695;28;20131;-72
2023/04/28 13:48:26;;;;;;;7.60;3.40;;;;;;;;;;5079322;28;20064;-70
2023/04/28 13:50:55;;;;;;;6.25;3.33;;;;;;;;;;5072769;28;20051;-67
2023/04/28 13:53:28;;;;;;;5.85;3.33;;;;;;;;;;5056159;28;20056;-70
2023/04/28 13:55:56;;;;;;;8.35;3.53;;;;;;;;;;5046387;28;20056;-71
2023/04/28 13:58:24;;;;;;;6.55;2.92;;;;;;;;;;5075747;28;20063;-72
2023/04/28 14:00:51;;;;;;;6.55;3.60;;;;;;;;;;5051491;28;20478;-69
2023/04/28 14:03:18;;;;;;;5.03;2.85;;;;;;;;;;5058547;28;20063;-72
2023/04/28 14:05:47;;;;;;;6.43;3.28;;;;;;;;;;5056239;28;20052;-71
2023/04/28 14:08:14;;;;;;;5.45;2.78;;;;;;;;;;5053888;28;20215;-67
2023/04/28 14:10:41;;;;;;;7.03;3.08;;;;;;;;;;5052639;28;20068;-69
2023/04/28 14:13:10;;;;;;;5.85;2.60;;;;;;;;;;5050566;28;20142;-71
2023/04/28 14:15:38;;;;;;;4.57;2.70;;;;;;;;;;5047962;28;20048;-71
2023/04/28 14:18:05;;;;;;;5.18;2.67;;;;;;;;;;5055771;28;20059;-67
2023/04/28 14:20:31;;;;;;;5.65;2.67;;;;;;;;;;5059084;28;20150;-67
2023/04/28 14:22:59;;;;;;;6.28;2.75;;;;;;;;;;5053806;28;20167;-71
2023/04/28 14:25:26;;;;;;;5.73;2.77;;;;;;;;;;5058965;28;20132;-71
2023/04/28 14:27:53;;;;;;;5.57;2.60;;;;;;;;;;4961025;28;20069;-72
2023/04/28 14:30:23;;;;;;;5.45;2.65;;;;;;;;;;5014830;28;20078;-70
2023/04/28 14:32:51;;;;;;;4.55;2.40;;;;;;;;;;4989500;28;20106;-68
2023/04/28 14:35:19;;;;;;;5.07;2.25;;;;;;;;;;4997837;28;20223;-68
2023/04/28 14:37:46;;;;;;;7.03;2.75;;;;;;;;;;5000088;28;20057;-67
2023/04/28 14:40:12;;;;;;;4.07;2.10;;;;;;;;;;5044327;28;20116;-69
2023/04/28 14:42:41;;;;;;;3.83;2.15;;;;;;;;;;5074008;28;20111;-70
2023/04/28 14:45:14;;;;;;;4.38;2.20;;;;;;;;;;5077671;28;20055;-68
2023/04/28 14:47:41;;;;;;;4.72;2.20;;;;;;;;;;5058050;28;20064;-71